createdAt,value
2022-12-27T00:01:15.968Z,100.00
2022-12-27T00:03:43.003Z,100.00
2022-12-27T00:06:10.682Z,100.00
2022-12-27T00:08:37.829Z,100.00
2022-12-27T00:11:05.867Z,100.00
2022-12-27T00:13:32.612Z,100.00
2022-12-27T00:16:03.417Z,100.00
2022-12-27T00:18:31.427Z,100.00
2022-12-27T00:20:59.021Z,100.00
2022-12-27T00:23:26.459Z,100.00
2022-12-27T00:26:00.287Z,100.00
2022-12-27T00:28:29.953Z,100.00
2022-12-27T00:30:56.957Z,100.00
2022-12-27T00:33:23.749Z,100.00
2022-12-27T00:35:51.783Z,100.00
2022-12-27T00:38:18.461Z,100.00
2022-12-27T00:40:45.414Z,100.00
2022-12-27T00:43:12.168Z,100.00
2022-12-27T00:45:38.984Z,100.00
2022-12-27T00:48:06.281Z,100.00
2022-12-27T00:50:32.999Z,100.00
2022-12-27T00:53:00.979Z,100.00
2022-12-27T00:55:28.059Z,100.00
2022-12-27T00:57:54.855Z,100.00
2022-12-27T01:00:21.834Z,100.00
2022-12-27T01:02:48.644Z,100.00
2022-12-27T01:05:15.460Z,100.00
2022-12-27T01:07:42.103Z,100.00
2022-12-27T01:10:11.212Z,100.00
2022-12-27T01:12:37.988Z,100.00
2022-12-27T01:15:07.630Z,100.00
2022-12-27T01:17:34.352Z,100.00
2022-12-27T01:20:01.313Z,100.00
2022-12-27T01:22:28.065Z,100.00
2022-12-27T01:24:54.797Z,100.00
2022-12-27T01:27:23.053Z,100.00
2022-12-27T01:29:49.755Z,100.00
2022-12-27T01:32:16.421Z,100.00
2022-12-27T01:34:43.325Z,100.00
2022-12-27T01:37:10.041Z,100.00
2022-12-27T01:39:36.724Z,100.00
2022-12-27T01:42:21.826Z,100.00
2022-12-27T01:44:56.677Z,100.00
2022-12-27T01:47:46.393Z,100.00
2022-12-27T01:50:20.304Z,100.00
2022-12-27T01:52:50.555Z,100.00
2022-12-27T01:55:23.343Z,100.00
2022-12-27T01:57:52.182Z,100.00
2022-12-27T02:00:20.539Z,100.00
2022-12-27T02:02:47.953Z,100.00
2022-12-27T02:05:16.771Z,100.00
2022-12-27T02:07:54.823Z,100.00
2022-12-27T02:10:21.641Z,100.00
2022-12-27T02:12:48.411Z,100.00
2022-12-27T02:15:15.380Z,100.00
2022-12-27T02:17:43.487Z,100.00
2022-12-27T02:20:14.303Z,100.00
2022-12-27T02:23:36.130Z,100.00
2022-12-27T02:26:20.938Z,100.00
2022-12-27T02:29:09.348Z,100.00
2022-12-27T02:31:41.117Z,100.00
2022-12-27T02:34:13.572Z,100.00
2022-12-27T02:36:43.116Z,100.00
2022-12-27T02:39:11.101Z,100.00
2022-12-27T02:41:56.750Z,100.00
2022-12-27T02:44:44.544Z,100.00
2022-12-27T02:47:37.530Z,100.00
2022-12-27T02:50:24.228Z,100.00
2022-12-27T02:53:04.195Z,100.00
2022-12-27T02:56:04.609Z,100.00
2022-12-27T02:58:40.689Z,100.00
2022-12-27T03:01:37.156Z,100.00
2022-12-27T03:04:21.421Z,100.00
2022-12-27T03:06:52.761Z,100.00
2022-12-27T03:10:01.730Z,100.00
2022-12-27T03:13:03.052Z,100.00
2022-12-27T03:15:55.110Z,100.00
2022-12-27T03:18:32.185Z,100.00
2022-12-27T03:21:19.197Z,100.00
2022-12-27T03:24:07.116Z,100.00
2022-12-27T03:26:37.776Z,100.00
2022-12-27T03:29:25.282Z,100.00
2022-12-27T03:32:14.714Z,100.00
2022-12-27T03:34:48.439Z,100.00
2022-12-27T03:37:41.703Z,100.00
2022-12-27T03:40:13.240Z,100.00
2022-12-27T03:43:02.907Z,100.00
2022-12-27T03:46:00.639Z,100.00
2022-12-27T03:48:31.429Z,100.00
2022-12-27T03:51:05.190Z,100.00
2022-12-27T03:53:34.241Z,100.00
2022-12-27T03:56:01.314Z,100.00
2022-12-27T03:58:28.062Z,100.00
2022-12-27T04:00:54.831Z,100.00
2022-12-27T04:03:21.667Z,100.00
2022-12-27T04:05:48.415Z,100.00
2022-12-27T04:08:34.866Z,100.00
2022-12-27T04:11:20.001Z,100.00
2022-12-27T04:14:05.478Z,100.00
2022-12-27T04:16:50.658Z,100.00
2022-12-27T04:19:35.861Z,100.00
2022-12-27T04:22:21.063Z,100.00
2022-12-27T04:25:07.698Z,100.00
2022-12-27T04:27:53.187Z,100.00
2022-12-27T04:30:38.498Z,100.00
2022-12-27T04:33:24.156Z,100.00
2022-12-27T04:35:50.848Z,100.00
2022-12-27T04:38:17.527Z,100.00
2022-12-27T04:41:03.959Z,100.00
2022-12-27T04:43:49.357Z,100.00
2022-12-27T04:46:40.726Z,100.00
2022-12-27T04:49:30.586Z,100.00
2022-12-27T04:52:15.843Z,100.00
2022-12-27T04:54:57.593Z,100.00
2022-12-27T04:57:26.852Z,100.00
2022-12-27T05:00:12.093Z,100.00
2022-12-27T05:02:39.836Z,100.00
2022-12-27T05:05:08.292Z,100.00
2022-12-27T05:07:55.368Z,100.00
2022-12-27T05:10:41.339Z,100.00
2022-12-27T05:13:30.674Z,100.00
2022-12-27T05:15:57.972Z,100.00
2022-12-27T05:18:24.662Z,100.00
2022-12-27T05:20:51.450Z,100.00
2022-12-27T05:23:36.654Z,100.00
2022-12-27T05:26:03.813Z,100.00
2022-12-27T05:28:32.007Z,100.00
2022-12-27T05:31:01.790Z,100.00
2022-12-27T05:33:30.881Z,100.00
2022-12-27T05:35:58.521Z,100.00
2022-12-27T05:38:25.176Z,100.00
2022-12-27T05:40:51.898Z,100.00
2022-12-27T05:43:18.647Z,100.00
2022-12-27T05:45:46.665Z,100.00
2022-12-27T05:48:13.411Z,100.00
2022-12-27T05:50:40.066Z,100.00
2022-12-27T05:53:06.767Z,100.00
2022-12-27T05:55:33.482Z,100.00
2022-12-27T05:58:00.176Z,100.00
2022-12-27T06:00:26.788Z,100.00
2022-12-27T06:02:54.968Z,100.00
2022-12-27T06:05:22.002Z,100.00
2022-12-27T06:07:48.766Z,100.00
2022-12-27T06:10:15.599Z,100.00
2022-12-27T06:12:42.349Z,100.00
2022-12-27T06:15:10.070Z,100.00
2022-12-27T06:17:36.732Z,100.00
2022-12-27T06:20:05.747Z,100.00
2022-12-27T06:22:32.418Z,100.00
2022-12-27T06:24:59.215Z,100.00
2022-12-27T06:27:25.974Z,100.00
2022-12-27T06:29:52.605Z,100.00
2022-12-27T06:32:19.294Z,100.00
2022-12-27T06:34:45.990Z,100.00
2022-12-27T06:37:14.169Z,100.00
2022-12-27T06:39:40.859Z,100.00
2022-12-27T06:42:07.608Z,100.00
2022-12-27T06:44:34.306Z,100.00
2022-12-27T06:47:01.527Z,100.00
2022-12-27T06:49:28.218Z,100.00
2022-12-27T06:51:59.515Z,100.00
2022-12-27T06:54:30.678Z,100.00
2022-12-27T06:56:57.398Z,100.00
2022-12-27T06:59:24.425Z,100.00
2022-12-27T07:01:51.234Z,100.00
2022-12-27T07:04:18.194Z,100.00
2022-12-27T07:06:44.963Z,100.00
2022-12-27T07:09:11.785Z,100.00
2022-12-27T07:11:39.917Z,100.00
2022-12-27T07:14:09.589Z,100.00
2022-12-27T07:16:36.927Z,100.00
2022-12-27T07:19:04.300Z,100.00
2022-12-27T07:21:31.051Z,100.00
2022-12-27T07:23:58.027Z,100.00
2022-12-27T07:26:29.963Z,100.00
2022-12-27T07:28:59.814Z,100.00
2022-12-27T07:31:29.808Z,100.00
2022-12-27T07:33:57.511Z,100.00
2022-12-27T07:36:26.430Z,100.00
2022-12-27T07:38:53.271Z,100.00
2022-12-27T07:41:20.290Z,100.00
2022-12-27T07:43:47.751Z,100.00
2022-12-27T07:46:18.585Z,100.00
2022-12-27T07:48:46.291Z,100.00
2022-12-27T07:51:14.713Z,100.00
2022-12-27T07:53:41.610Z,100.00
2022-12-27T07:56:09.500Z,100.00
2022-12-27T07:58:38.055Z,100.00
2022-12-27T08:01:05.237Z,100.00
2022-12-27T08:03:33.485Z,100.00
2022-12-27T08:06:00.445Z,100.00
2022-12-27T08:08:33.209Z,100.00
2022-12-27T08:11:05.336Z,100.00
2022-12-27T08:13:32.695Z,100.00
2022-12-27T08:15:59.534Z,100.00
2022-12-27T08:18:26.384Z,100.00
2022-12-27T08:20:54.743Z,100.00
2022-12-27T08:23:21.482Z,100.00
2022-12-27T08:25:49.124Z,100.00
2022-12-27T08:28:17.853Z,100.00
2022-12-27T08:30:45.899Z,100.00
2022-12-27T08:33:13.212Z,100.00
2022-12-27T08:35:56.078Z,100.00
2022-12-27T08:38:24.522Z,100.00
2022-12-27T08:40:51.251Z,100.00
2022-12-27T08:43:17.973Z,100.00
2022-12-27T08:45:44.804Z,100.00
2022-12-27T08:48:11.749Z,100.00
2022-12-27T08:50:38.582Z,100.00
2022-12-27T08:53:06.132Z,100.00
2022-12-27T08:55:34.623Z,100.00
2022-12-27T08:58:03.283Z,100.00
2022-12-27T09:00:32.843Z,100.00
2022-12-27T09:02:59.890Z,100.00
2022-12-27T09:05:28.049Z,100.00
2022-12-27T09:07:54.881Z,100.00
2022-12-27T09:10:22.501Z,100.00
2022-12-27T09:12:50.713Z,100.00
2022-12-27T09:15:17.718Z,100.00
2022-12-27T09:17:44.379Z,100.00
2022-12-27T09:20:12.504Z,100.00
2022-12-27T09:22:42.398Z,100.00
2022-12-27T09:25:09.751Z,100.00
2022-12-27T09:27:36.848Z,100.00
2022-12-27T09:30:07.601Z,100.00
2022-12-27T09:32:34.670Z,100.00
2022-12-27T09:35:01.607Z,100.00
2022-12-27T09:37:28.318Z,100.00
2022-12-27T09:39:55.088Z,100.00
2022-12-27T09:42:50.813Z,100.00
2022-12-27T09:45:26.278Z,100.00
2022-12-27T09:47:58.582Z,100.00
2022-12-27T09:50:30.400Z,100.00
2022-12-27T09:53:02.340Z,100.00
2022-12-27T09:55:38.937Z,100.00
2022-12-27T09:58:18.482Z,100.00
2022-12-27T10:00:49.348Z,100.00
2022-12-27T10:03:25.663Z,100.00
2022-12-27T10:06:00.290Z,100.00
2022-12-27T10:08:39.988Z,100.00
2022-12-27T10:11:36.019Z,100.00
2022-12-27T10:14:11.253Z,100.00
2022-12-27T10:16:46.403Z,100.00
2022-12-27T10:19:29.919Z,100.00
2022-12-27T10:22:09.948Z,100.00
2022-12-27T10:24:41.291Z,100.00
2022-12-27T10:27:14.457Z,100.00
2022-12-27T10:29:42.508Z,100.00
2022-12-27T10:32:13.873Z,100.00
2022-12-27T10:34:40.684Z,100.00
2022-12-27T10:37:10.041Z,100.00
2022-12-27T10:39:38.584Z,100.00
2022-12-27T10:42:15.623Z,100.00
2022-12-27T10:44:42.406Z,100.00
2022-12-27T10:47:11.114Z,100.00
2022-12-27T10:49:39.721Z,100.00
2022-12-27T10:52:17.176Z,100.00
2022-12-27T10:54:52.221Z,100.00
2022-12-27T10:57:27.847Z,97.44
2022-12-27T11:00:25.059Z,99.46
2022-12-27T11:02:55.078Z,100.00
2022-12-27T11:05:28.366Z,97.14
2022-12-27T11:07:55.433Z,98.33
2022-12-27T11:10:23.733Z,98.19
2022-12-27T11:12:57.000Z,97.73
2022-12-27T11:15:34.148Z,98.58
2022-12-27T11:18:09.150Z,97.72
2022-12-27T11:20:39.650Z,97.74
2022-12-27T11:23:13.709Z,97.93
2022-12-27T11:25:53.396Z,96.50
2022-12-27T11:28:29.037Z,98.40
2022-12-27T11:30:58.174Z,100.00
2022-12-27T11:33:33.402Z,95.60
2022-12-27T11:36:01.067Z,95.16
2022-12-27T11:38:30.393Z,95.42
2022-12-27T11:40:59.028Z,97.02
2022-12-27T11:43:27.946Z,96.22
2022-12-27T11:45:57.234Z,95.08
2022-12-27T11:48:30.101Z,95.49
2022-12-27T11:51:13.941Z,96.03
2022-12-27T11:54:22.388Z,97.05
2022-12-27T11:56:52.745Z,96.77
2022-12-27T11:59:37.781Z,97.92
2022-12-27T12:02:32.385Z,100.00
2022-12-27T12:05:40.348Z,100.00
2022-12-27T12:08:27.315Z,100.00
2022-12-27T12:11:05.191Z,100.00
2022-12-27T12:13:56.781Z,100.00
2022-12-27T12:16:48.153Z,100.00
2022-12-27T12:19:33.199Z,100.00
2022-12-27T12:22:27.895Z,100.00
2022-12-27T12:25:08.069Z,100.00
2022-12-27T12:27:49.116Z,100.00
2022-12-27T12:30:33.310Z,100.00
2022-12-27T12:33:06.694Z,100.00
2022-12-27T12:36:03.642Z,100.00
2022-12-27T12:38:40.846Z,100.00
2022-12-27T12:41:43.983Z,100.00
2022-12-27T12:44:55.720Z,100.00
2022-12-27T12:47:48.821Z,100.00
2022-12-27T12:50:34.163Z,100.00
2022-12-27T12:53:20.371Z,100.00
2022-12-27T12:56:05.424Z,100.00
2022-12-27T12:58:45.176Z,100.00
2022-12-27T13:01:32.843Z,100.00
2022-12-27T13:04:22.640Z,100.00
2022-12-27T13:07:11.731Z,100.00
2022-12-27T13:09:50.780Z,100.00
2022-12-27T13:12:25.864Z,100.00
2022-12-27T13:15:17.926Z,100.00
2022-12-27T13:17:55.354Z,100.00
2022-12-27T13:20:45.538Z,100.00
2022-12-27T13:23:33.780Z,100.00
2022-12-27T13:26:10.321Z,100.00
2022-12-27T13:28:49.641Z,100.00
2022-12-27T13:31:27.796Z,100.00
2022-12-27T13:34:05.082Z,100.00
2022-12-27T13:36:43.771Z,100.00
2022-12-27T13:39:31.076Z,100.00
2022-12-27T13:42:13.350Z,100.00
2022-12-27T13:44:54.193Z,100.00
2022-12-27T13:47:55.792Z,100.00
2022-12-27T13:51:03.231Z,100.00
2022-12-27T13:54:17.176Z,100.00
2022-12-27T13:56:54.870Z,100.00
2022-12-27T13:59:52.225Z,100.00
2022-12-27T14:02:44.314Z,100.00
2022-12-27T14:05:48.607Z,100.00
2022-12-27T14:08:24.815Z,100.00
2022-12-27T14:11:07.190Z,100.00
2022-12-27T14:13:37.129Z,100.00
2022-12-27T14:16:35.006Z,100.00
2022-12-27T14:19:17.691Z,100.00
2022-12-27T14:22:03.696Z,100.00
2022-12-27T14:25:08.355Z,100.00
2022-12-27T14:28:04.781Z,100.00
2022-12-27T14:30:54.556Z,100.00
2022-12-27T14:34:18.255Z,100.00
2022-12-27T14:37:08.833Z,100.00
2022-12-27T14:40:13.018Z,100.00
2022-12-27T14:43:26.209Z,100.00
2022-12-27T14:46:21.462Z,100.00
2022-12-27T14:49:21.765Z,100.00
2022-12-27T14:52:21.885Z,100.00
2022-12-27T14:55:18.022Z,100.00
2022-12-27T14:57:51.883Z,100.00
2022-12-27T15:00:20.240Z,100.00
2022-12-27T15:03:03.325Z,100.00
2022-12-27T15:05:58.002Z,100.00
2022-12-27T15:08:55.729Z,100.00
2022-12-27T15:11:33.705Z,100.00
2022-12-27T15:14:15.829Z,100.00
2022-12-27T15:16:52.413Z,100.00
2022-12-27T15:19:38.582Z,100.00
2022-12-27T15:22:16.968Z,100.00
2022-12-27T15:24:53.463Z,100.00
2022-12-27T15:27:28.308Z,100.00
2022-12-27T15:30:17.017Z,100.00
2022-12-27T15:32:53.409Z,100.00
2022-12-27T15:35:51.116Z,100.00
2022-12-27T15:38:47.139Z,100.00
2022-12-27T15:41:33.627Z,100.00
2022-12-27T15:44:30.058Z,100.00
2022-12-27T15:47:39.996Z,100.00
2022-12-27T15:50:23.262Z,100.00
2022-12-27T15:53:04.942Z,100.00
2022-12-27T15:55:58.254Z,100.00
2022-12-27T15:58:26.109Z,100.00
2022-12-27T16:01:26.819Z,100.00
2022-12-27T16:03:55.321Z,100.00
2022-12-27T16:06:48.997Z,100.00
2022-12-27T16:09:33.351Z,100.00
2022-12-27T16:12:03.939Z,100.00
2022-12-27T16:14:33.107Z,100.00
2022-12-27T16:17:13.754Z,100.00
2022-12-27T16:20:16.462Z,100.00
2022-12-27T16:22:49.998Z,100.00
2022-12-27T16:25:33.894Z,100.00
2022-12-27T16:28:07.839Z,100.00
2022-12-27T16:30:42.941Z,100.00
2022-12-27T16:33:34.952Z,100.00
2022-12-27T16:36:21.573Z,100.00
2022-12-27T16:39:04.003Z,100.00
2022-12-27T16:41:58.554Z,100.00
2022-12-27T16:44:37.975Z,100.00
2022-12-27T16:47:19.271Z,100.00
2022-12-27T16:50:00.683Z,100.00
2022-12-27T16:52:47.738Z,100.00
2022-12-27T16:55:42.398Z,100.00
2022-12-27T16:58:25.158Z,100.00
2022-12-27T17:00:55.056Z,100.00
2022-12-27T17:03:42.572Z,100.00
2022-12-27T17:06:46.829Z,100.00
2022-12-27T17:09:41.848Z,100.00
2022-12-27T17:12:32.375Z,100.00
2022-12-27T17:15:04.753Z,100.00
2022-12-27T17:17:33.698Z,100.00
2022-12-27T17:20:05.133Z,100.00
2022-12-27T17:22:35.289Z,100.00
2022-12-27T17:25:03.421Z,100.00
2022-12-27T17:27:41.462Z,100.00
2022-12-27T17:30:22.413Z,100.00
2022-12-27T17:33:37.635Z,100.00
2022-12-27T17:36:16.876Z,100.00
2022-12-27T17:38:53.978Z,100.00
2022-12-27T17:41:51.994Z,100.00
2022-12-27T17:44:39.373Z,100.00
2022-12-27T17:47:32.751Z,100.00
2022-12-27T17:50:03.436Z,100.00
2022-12-27T17:53:12.936Z,100.00
2022-12-27T17:56:05.903Z,100.00
2022-12-27T17:58:34.642Z,100.00
2022-12-27T18:01:02.849Z,100.00
2022-12-27T18:03:35.945Z,100.00
2022-12-27T18:06:04.619Z,100.00
2022-12-27T18:08:34.224Z,100.00
2022-12-27T18:11:03.080Z,100.00
2022-12-27T18:13:33.345Z,100.00
2022-12-27T18:16:15.346Z,100.00
2022-12-27T18:18:46.569Z,100.00
2022-12-27T18:21:22.992Z,100.00
2022-12-27T18:23:52.793Z,100.00
2022-12-27T18:26:21.250Z,100.00
2022-12-27T18:28:48.668Z,100.00
2022-12-27T18:31:23.329Z,100.00
2022-12-27T18:33:51.733Z,100.00
2022-12-27T18:36:27.898Z,100.00
2022-12-27T18:38:58.812Z,100.00
2022-12-27T18:41:27.745Z,100.00
2022-12-27T18:44:00.843Z,100.00
2022-12-27T18:46:31.595Z,100.00
2022-12-27T18:48:59.349Z,100.00
2022-12-27T18:51:32.392Z,100.00
2022-12-27T18:53:59.998Z,100.00
2022-12-27T18:56:30.451Z,100.00
2022-12-27T18:59:03.119Z,100.00
2022-12-27T19:01:38.193Z,100.00
2022-12-27T19:04:22.873Z,100.00
2022-12-27T19:06:55.175Z,100.00
2022-12-27T19:09:26.216Z,100.00
2022-12-27T19:11:56.691Z,100.00
2022-12-27T19:14:24.622Z,100.00
2022-12-27T19:16:54.272Z,100.00
2022-12-27T19:19:25.955Z,100.00
2022-12-27T19:21:54.389Z,100.00
2022-12-27T19:24:34.034Z,100.00
2022-12-27T19:27:14.713Z,100.00
2022-12-27T19:29:49.457Z,100.00
2022-12-27T19:32:18.001Z,100.00
2022-12-27T19:34:50.515Z,100.00
2022-12-27T19:37:19.370Z,100.00
2022-12-27T19:39:48.229Z,100.00
2022-12-27T19:42:19.192Z,100.00
2022-12-27T19:44:45.981Z,100.00
2022-12-27T19:47:16.954Z,100.00
2022-12-27T19:49:44.880Z,100.00
2022-12-27T19:52:16.644Z,100.00
2022-12-27T19:54:44.960Z,100.00
2022-12-27T19:57:12.796Z,100.00
2022-12-27T19:59:39.818Z,100.00
2022-12-27T20:02:07.247Z,100.00
2022-12-27T20:04:34.267Z,100.00
2022-12-27T20:07:01.907Z,100.00
2022-12-27T20:09:28.743Z,100.00
2022-12-27T20:11:57.099Z,100.00
2022-12-27T20:14:23.859Z,100.00
2022-12-27T20:16:50.601Z,100.00
2022-12-27T20:19:18.221Z,100.00
2022-12-27T20:21:45.282Z,100.00
2022-12-27T20:24:13.048Z,100.00
2022-12-27T20:26:40.542Z,100.00
2022-12-27T20:29:09.334Z,100.00
2022-12-27T20:31:43.832Z,100.00
2022-12-27T20:34:11.239Z,100.00
2022-12-27T20:36:38.350Z,100.00
2022-12-27T20:39:07.265Z,100.00
2022-12-27T20:41:34.382Z,100.00
2022-12-27T20:44:01.546Z,100.00
2022-12-27T20:46:29.905Z,100.00
2022-12-27T20:48:57.455Z,100.00
2022-12-27T20:51:27.647Z,100.00
2022-12-27T20:53:56.343Z,100.00
2022-12-27T20:56:24.233Z,100.00
2022-12-27T20:58:51.025Z,100.00
2022-12-27T21:01:19.958Z,100.00
2022-12-27T21:03:48.840Z,100.00
2022-12-27T21:06:17.407Z,100.00
2022-12-27T21:08:49.001Z,100.00
2022-12-27T21:11:18.830Z,100.00
2022-12-27T21:13:46.673Z,100.00
2022-12-27T21:16:15.166Z,100.00
2022-12-27T21:18:42.469Z,100.00
2022-12-27T21:21:14.779Z,100.00
2022-12-27T21:23:43.464Z,100.00
2022-12-27T21:26:11.901Z,100.00
2022-12-27T21:28:39.056Z,100.00
2022-12-27T21:31:06.916Z,100.00
2022-12-27T21:33:35.918Z,100.00
2022-12-27T21:36:05.141Z,100.00
2022-12-27T21:38:35.067Z,100.00
2022-12-27T21:41:03.935Z,100.00
2022-12-27T21:43:31.220Z,100.00
2022-12-27T21:45:58.419Z,100.00
2022-12-27T21:48:25.828Z,100.00
2022-12-27T21:50:52.600Z,100.00
2022-12-27T21:53:19.923Z,100.00
2022-12-27T21:55:48.029Z,100.00
2022-12-27T21:58:14.794Z,100.00
2022-12-27T22:00:41.513Z,100.00
2022-12-27T22:03:08.436Z,100.00
2022-12-27T22:05:35.105Z,100.00
2022-12-27T22:08:01.910Z,100.00
2022-12-27T22:10:28.937Z,100.00
2022-12-27T22:12:57.166Z,100.00
2022-12-27T22:15:23.912Z,100.00
2022-12-27T22:17:54.167Z,100.00
2022-12-27T22:20:20.856Z,100.00
2022-12-27T22:22:47.560Z,100.00
2022-12-27T22:25:14.526Z,100.00
2022-12-27T22:27:41.229Z,100.00
2022-12-27T22:30:10.444Z,100.00
2022-12-27T22:32:37.083Z,100.00
2022-12-27T22:35:04.264Z,100.00
2022-12-27T22:37:34.029Z,100.00
2022-12-27T22:40:01.199Z,100.00
2022-12-27T22:42:27.832Z,100.00
2022-12-27T22:44:54.524Z,100.00
2022-12-27T22:47:27.682Z,100.00
2022-12-27T22:49:54.865Z,100.00
2022-12-27T22:52:21.520Z,100.00
2022-12-27T22:55:05.211Z,100.00
2022-12-27T22:57:33.488Z,100.00
2022-12-27T23:00:00.254Z,100.00
2022-12-27T23:02:28.465Z,100.00
2022-12-27T23:04:55.289Z,100.00
2022-12-27T23:08:04.547Z,100.00
2022-12-27T23:10:09.954Z,100.00
2022-12-27T23:12:36.700Z,100.00
2022-12-27T23:15:03.731Z,100.00
2022-12-27T23:17:31.759Z,100.00
2022-12-27T23:19:58.508Z,100.00
2022-12-27T23:22:25.185Z,100.00
2022-12-27T23:24:51.848Z,100.00
2022-12-27T23:27:18.563Z,100.00
2022-12-27T23:29:45.211Z,100.00
2022-12-27T23:32:12.028Z,100.00
2022-12-27T23:34:41.996Z,100.00
2022-12-27T23:37:08.921Z,100.00
2022-12-27T23:39:35.712Z,100.00
2022-12-27T23:42:02.894Z,100.00
2022-12-27T23:44:34.112Z,100.00
2022-12-27T23:47:01.816Z,100.00
2022-12-27T23:49:28.641Z,100.00
2022-12-27T23:51:56.892Z,100.00
2022-12-27T23:54:23.814Z,100.00
2022-12-27T23:56:50.598Z,100.00
2022-12-27T23:59:17.629Z,100.00
